createdAt,value
2016-09-13T00:03:55.801Z,23.32
2016-09-13T00:08:52.388Z,23.41
2016-09-13T00:13:48.982Z,23.44
2016-09-13T00:18:45.881Z,23.31
2016-09-13T00:23:43.085Z,23.32
2016-09-13T00:28:42.544Z,23.47
2016-09-13T00:33:38.611Z,23.46
2016-09-13T00:38:35.253Z,23.27
2016-09-13T00:43:34.329Z,23.36
2016-09-13T00:48:30.301Z,23.34
2016-09-13T00:53:28.004Z,23.31
2016-09-13T00:58:24.236Z,23.32
2016-09-13T01:03:23.305Z,23.25
2016-09-13T01:08:19.353Z,23.32
2016-09-13T01:13:15.894Z,23.31
2016-09-13T01:18:12.557Z,23.28
2016-09-13T01:23:09.024Z,23.31
2016-09-13T01:28:05.599Z,23.28
2016-09-13T01:33:02.347Z,23.31
2016-09-13T01:37:59.316Z,23.31
2016-09-13T01:42:55.721Z,23.23
2016-09-13T01:47:52.188Z,23.21
2016-09-13T01:52:48.760Z,23.21
2016-09-13T01:57:46.400Z,23.23
2016-09-13T02:02:43.091Z,23.15
2016-09-13T02:07:39.607Z,23.12
2016-09-13T02:12:36.302Z,23.05
2016-09-13T02:17:32.856Z,23.06
2016-09-13T02:22:29.837Z,23.05
2016-09-13T02:27:26.343Z,22.94
2016-09-13T02:32:22.995Z,23.00
2016-09-13T02:37:19.918Z,22.96
2016-09-13T02:42:16.673Z,23.02
2016-09-13T02:47:13.362Z,22.99
2016-09-13T02:52:11.087Z,22.87
2016-09-13T02:57:07.435Z,22.83
2016-09-13T03:02:04.066Z,22.85
2016-09-13T03:07:00.707Z,22.78
2016-09-13T03:11:57.306Z,22.76
2016-09-13T03:16:53.762Z,22.83
2016-09-13T03:21:50.317Z,22.83
2016-09-13T03:26:46.986Z,22.85
2016-09-13T03:31:43.633Z,22.84
2016-09-13T03:36:40.212Z,22.81
2016-09-13T03:41:36.958Z,22.78
2016-09-13T03:46:33.665Z,22.83
2016-09-13T03:51:30.421Z,22.76
2016-09-13T03:56:29.400Z,22.69
2016-09-13T04:01:25.459Z,22.78
2016-09-13T04:06:21.984Z,22.81
2016-09-13T04:11:18.888Z,22.70
2016-09-13T04:16:17.943Z,22.87
2016-09-13T04:21:13.968Z,22.76
2016-09-13T04:26:10.539Z,22.80
2016-09-13T04:31:07.153Z,22.63
2016-09-13T04:36:03.745Z,22.57
2016-09-13T04:41:00.386Z,22.57
2016-09-13T04:45:57.136Z,22.60
2016-09-13T04:50:53.539Z,22.59
2016-09-13T04:55:50.150Z,22.51
2016-09-13T05:00:46.695Z,22.48
2016-09-13T05:05:43.304Z,22.47
2016-09-13T05:10:39.894Z,22.55
2016-09-13T05:15:36.652Z,22.59
2016-09-13T05:20:33.226Z,22.48
2016-09-13T05:25:29.974Z,22.63
2016-09-13T05:30:26.643Z,22.85
2016-09-13T05:35:24.030Z,22.80
2016-09-13T05:40:20.983Z,22.76
2016-09-13T05:45:17.738Z,22.83
2016-09-13T05:50:14.406Z,22.91
2016-09-13T05:55:12.390Z,22.78
2016-09-13T06:00:08.957Z,22.90
2016-09-13T06:05:05.575Z,22.87
2016-09-13T06:10:02.126Z,22.88
2016-09-13T06:14:58.905Z,22.96
2016-09-13T06:19:55.624Z,23.03
2016-09-13T06:24:52.224Z,23.27
2016-09-13T06:29:48.878Z,23.56
2016-09-13T06:34:45.982Z,23.50
2016-09-13T06:39:42.774Z,23.66
2016-09-13T06:44:39.511Z,23.88
2016-09-13T06:49:35.943Z,23.77
2016-09-13T06:54:32.752Z,23.73
2016-09-13T06:59:29.953Z,23.81
2016-09-13T07:04:26.700Z,23.91
2016-09-13T07:09:26.025Z,23.96
2016-09-13T07:14:21.983Z,24.14
2016-09-13T07:19:18.968Z,23.99
2016-09-13T07:24:17.094Z,24.03
2016-09-13T07:29:13.517Z,24.17
2016-09-13T07:34:10.228Z,24.32
2016-09-13T07:39:06.718Z,24.39
2016-09-13T07:44:03.600Z,24.55
2016-09-13T07:49:02.708Z,24.68
2016-09-13T07:53:58.714Z,24.85
2016-09-13T07:58:56.590Z,24.84
2016-09-13T08:03:53.103Z,25.21
2016-09-13T08:08:51.189Z,26.15
2016-09-13T08:13:47.945Z,27.07
2016-09-13T08:18:45.408Z,27.35
2016-09-13T08:23:42.626Z,27.44
2016-09-13T08:28:39.606Z,27.36
2016-09-13T08:33:37.746Z,27.22
2016-09-13T08:38:34.415Z,27.03
2016-09-13T08:43:31.352Z,27.10
2016-09-13T08:48:28.398Z,27.05
2016-09-13T08:53:26.132Z,27.07
2016-09-13T08:58:22.448Z,27.00
2016-09-13T09:03:18.391Z,26.88
2016-09-13T09:08:14.686Z,26.66
2016-09-13T09:13:13.842Z,26.56
2016-09-13T09:18:10.589Z,26.43
2016-09-13T09:23:07.268Z,26.47
2016-09-13T09:28:04.427Z,26.33
2016-09-13T09:33:01.128Z,26.22
2016-09-13T09:37:57.648Z,26.22
2016-09-13T09:42:56.814Z,26.05
2016-09-13T09:47:53.166Z,26.05
2016-09-13T09:52:50.353Z,26.16
2016-09-13T09:57:47.054Z,26.07
2016-09-13T10:02:43.682Z,26.00
2016-09-13T10:07:41.416Z,26.03
2016-09-13T10:12:37.799Z,25.99
2016-09-13T10:17:34.726Z,25.99
2016-09-13T10:22:31.277Z,25.96
2016-09-13T10:27:28.375Z,26.03
2016-09-13T10:32:25.107Z,26.06
2016-09-13T10:37:21.886Z,26.03
2016-09-13T10:42:18.415Z,26.07
2016-09-13T10:47:15.056Z,26.18
2016-09-13T10:52:11.876Z,26.06
2016-09-13T10:57:08.725Z,26.18
2016-09-13T11:02:05.339Z,26.31
2016-09-13T11:07:02.044Z,26.31
2016-09-13T11:11:59.091Z,26.44
2016-09-13T11:16:55.638Z,26.47
2016-09-13T11:21:54.897Z,26.60
2016-09-13T11:26:51.118Z,26.62
2016-09-13T11:31:47.709Z,26.75
2016-09-13T11:36:45.623Z,26.73
2016-09-13T11:41:42.067Z,26.75
2016-09-13T11:46:38.645Z,26.93
2016-09-13T11:51:35.306Z,26.97
2016-09-13T11:56:31.963Z,26.97
2016-09-13T12:01:28.657Z,26.88
2016-09-13T12:06:25.355Z,26.95
2016-09-13T12:11:21.817Z,26.90
2016-09-13T12:16:18.817Z,26.92
2016-09-13T12:21:15.820Z,27.07
2016-09-13T12:26:12.415Z,27.07
2016-09-13T12:31:09.183Z,27.11
2016-09-13T12:36:05.868Z,27.14
2016-09-13T12:41:02.630Z,27.02
2016-09-13T12:45:59.378Z,27.00
2016-09-13T12:50:56.143Z,27.08
2016-09-13T12:55:52.662Z,27.36
2016-09-13T13:00:49.366Z,27.35
2016-09-13T13:05:46.017Z,27.47
2016-09-13T13:10:43.799Z,27.22
2016-09-13T13:15:40.176Z,27.32
2016-09-13T13:20:39.528Z,27.12
2016-09-13T13:25:35.402Z,27.29
2016-09-13T13:30:32.128Z,27.44
2016-09-13T13:35:28.825Z,27.35
2016-09-13T13:40:25.733Z,27.51
2016-09-13T13:45:22.444Z,27.37
2016-09-13T13:50:19.169Z,27.29
2016-09-13T13:55:16.252Z,27.25
2016-09-13T14:00:13.017Z,27.40
2016-09-13T14:05:10.144Z,27.65
2016-09-13T14:10:06.876Z,27.59
2016-09-13T14:15:03.596Z,27.32
2016-09-13T14:20:01.062Z,27.18
2016-09-13T14:24:57.762Z,27.05
2016-09-13T14:29:54.312Z,27.03
2016-09-13T14:34:50.940Z,27.00
2016-09-13T14:39:47.517Z,26.96
2016-09-13T14:44:44.211Z,26.95
2016-09-13T14:49:40.927Z,26.90
2016-09-13T14:54:37.601Z,26.97
2016-09-13T14:59:34.271Z,26.93
2016-09-13T15:04:30.952Z,26.89
2016-09-13T15:09:27.761Z,26.90
2016-09-13T15:14:24.487Z,26.90
2016-09-13T15:19:21.530Z,26.80
2016-09-13T15:24:18.179Z,26.85
2016-09-13T15:29:14.710Z,26.90
2016-09-13T15:34:11.616Z,26.93
2016-09-13T15:39:08.370Z,26.88
2016-09-13T15:44:04.842Z,26.95
2016-09-13T15:49:01.496Z,26.92
2016-09-13T15:53:58.107Z,26.90
2016-09-13T15:58:54.808Z,26.89
2016-09-13T16:03:51.445Z,26.83
2016-09-13T16:08:48.375Z,26.95
2016-09-13T16:13:45.137Z,26.90
2016-09-13T16:18:41.899Z,26.93
2016-09-13T16:23:38.442Z,27.07
2016-09-13T16:28:35.042Z,27.05
2016-09-13T16:33:32.966Z,26.96
2016-09-13T16:38:29.165Z,26.81
2016-09-13T16:43:25.846Z,26.81
2016-09-13T16:48:22.514Z,26.80
2016-09-13T16:53:19.209Z,26.77
2016-09-13T16:58:15.889Z,26.78
2016-09-13T17:03:14.415Z,27.05
2016-09-13T17:08:10.892Z,27.03
2016-09-13T17:13:08.627Z,27.07
2016-09-13T17:18:05.006Z,27.05
2016-09-13T17:23:01.638Z,27.12
2016-09-13T17:27:58.300Z,27.08
2016-09-13T17:32:54.812Z,27.08
2016-09-13T17:37:51.559Z,27.15
2016-09-13T17:42:48.253Z,27.27
2016-09-13T17:47:45.283Z,27.37
2016-09-13T17:52:42.440Z,27.54
2016-09-13T17:57:39.021Z,27.25
2016-09-13T18:02:35.666Z,27.18
2016-09-13T18:07:32.381Z,27.08
2016-09-13T18:12:29.422Z,27.11
2016-09-13T18:17:26.199Z,27.25
2016-09-13T18:22:24.256Z,27.39
2016-09-13T18:27:20.759Z,27.49
2016-09-13T18:32:18.762Z,27.39
2016-09-13T18:37:15.130Z,27.37
2016-09-13T18:42:11.869Z,27.17
2016-09-13T18:47:08.448Z,26.93
2016-09-13T18:52:05.151Z,26.81
2016-09-13T18:57:01.688Z,26.70
2016-09-13T19:01:58.545Z,26.58
2016-09-13T19:06:55.370Z,26.58
2016-09-13T19:11:52.116Z,26.47
2016-09-13T19:16:48.690Z,26.47
2016-09-13T19:21:45.366Z,26.38
2016-09-13T19:26:42.076Z,26.28
2016-09-13T19:31:41.124Z,26.36
2016-09-13T19:36:37.233Z,26.33
2016-09-13T19:41:33.888Z,26.43
2016-09-13T19:46:33.080Z,26.37
2016-09-13T19:51:29.298Z,26.33
2016-09-13T19:56:25.829Z,26.33
2016-09-13T20:01:22.341Z,26.36
2016-09-13T20:06:19.284Z,26.33
2016-09-13T20:11:15.941Z,26.26
2016-09-13T20:16:12.879Z,26.15
2016-09-13T20:21:10.119Z,26.18
2016-09-13T20:26:06.699Z,26.21
2016-09-13T20:31:03.459Z,26.09
2016-09-13T20:36:00.531Z,26.06
2016-09-13T20:40:57.210Z,26.10
2016-09-13T20:45:53.738Z,26.00
2016-09-13T20:50:50.650Z,25.99
2016-09-13T20:55:47.541Z,25.99
2016-09-13T21:00:44.408Z,25.84
2016-09-13T21:05:43.562Z,25.83
2016-09-13T21:10:39.727Z,25.87
2016-09-13T21:15:36.342Z,25.72
2016-09-13T21:20:33.095Z,25.66
2016-09-13T21:25:29.828Z,25.62
2016-09-13T21:30:26.762Z,25.55
2016-09-13T21:35:23.538Z,25.55
2016-09-13T21:40:20.060Z,25.54
2016-09-13T21:45:19.667Z,25.50
2016-09-13T21:50:15.725Z,25.48
2016-09-13T21:55:12.612Z,25.48
2016-09-13T22:00:09.534Z,25.38
2016-09-13T22:05:06.262Z,25.35
2016-09-13T22:10:02.948Z,25.36
2016-09-13T22:14:59.636Z,25.33
2016-09-13T22:19:56.681Z,25.36
2016-09-13T22:24:53.674Z,25.28
2016-09-13T22:29:50.222Z,25.26
2016-09-13T22:34:47.322Z,25.25
2016-09-13T22:39:44.076Z,25.21
2016-09-13T22:44:40.759Z,25.18
2016-09-13T22:49:37.476Z,25.17
2016-09-13T22:54:36.727Z,25.06
2016-09-13T22:59:32.688Z,25.08
2016-09-13T23:04:29.385Z,24.99
2016-09-13T23:09:26.096Z,25.04
2016-09-13T23:14:22.676Z,24.95
2016-09-13T23:19:22.227Z,24.96
2016-09-13T23:24:18.315Z,24.89
2016-09-13T23:29:15.398Z,24.92
2016-09-13T23:34:12.011Z,24.98
2016-09-13T23:39:08.614Z,24.88
2016-09-13T23:44:05.257Z,24.76
2016-09-13T23:49:01.816Z,24.84
2016-09-13T23:53:58.355Z,24.84
2016-09-13T23:58:54.971Z,24.78
